Time;durP1;ratioP1;P1;durP2;ratioP2;P2;SDS_P1;SDS_P2;PMS_P1;PMS_P2;Temp;Humidity;BMP_temperature;BMP_pressure;BME280_temperature;BME280_humidity;BME280_pressure;Samples;Min_cycle;Max_cycle;Signal;HPM_P1;HPM_P2
2022/10/19 00:01:20;;;;;;;2.90;2.30;;;;;;;;;;4982804;28;20617;-58
2022/10/19 00:03:47;;;;;;;3.20;2.40;;;;;;;;;;4968933;28;20204;-59
2022/10/19 00:06:15;;;;;;;3.33;2.23;;;;;;;;;;4982138;28;20670;-59
2022/10/19 00:08:41;;;;;;;2.70;2.43;;;;;;;;;;4987003;28;20183;-59
2022/10/19 00:11:11;;;;;;;3.83;2.20;;;;;;;;;;4977278;28;20671;-58
2022/10/19 00:13:37;;;;;;;3.70;2.30;;;;;;;;;;4971992;28;21082;-58
2022/10/19 00:16:10;;;;;;;2.60;2.40;;;;;;;;;;4972799;28;20187;-58
2022/10/19 00:18:36;;;;;;;2.27;2.07;;;;;;;;;;4971770;28;20188;-58
2022/10/19 00:21:03;;;;;;;2.90;2.60;;;;;;;;;;4970516;28;20198;-59
2022/10/19 00:23:30;;;;;;;3.77;2.20;;;;;;;;;;4974269;28;20240;-58
2022/10/19 00:25:56;;;;;;;5.77;2.57;;;;;;;;;;4969676;28;20524;-59
2022/10/19 00:28:23;;;;;;;4.93;2.33;;;;;;;;;;4964421;28;20615;-58
2022/10/19 00:30:49;;;;;;;3.93;2.43;;;;;;;;;;4968809;28;20192;-59
2022/10/19 00:33:20;;;;;;;3.80;2.43;;;;;;;;;;4951964;28;20187;-58
2022/10/19 00:35:48;;;;;;;2.37;2.20;;;;;;;;;;4982959;28;20599;-58
2022/10/19 00:38:17;;;;;;;3.70;2.27;;;;;;;;;;4978698;28;20280;-59
2022/10/19 00:40:47;;;;;;;2.83;2.43;;;;;;;;;;4982046;28;20270;-58
2022/10/19 00:43:22;;;;;;;3.67;2.67;;;;;;;;;;4951811;28;20249;-59
2022/10/19 00:45:48;;;;;;;2.67;2.47;;;;;;;;;;4982788;28;20237;-59
2022/10/19 00:48:16;;;;;;;2.87;2.40;;;;;;;;;;4952051;28;20215;-59
2022/10/19 00:50:43;;;;;;;4.50;3.37;;;;;;;;;;4983386;28;20610;-58
2022/10/19 00:53:13;;;;;;;2.83;2.13;;;;;;;;;;4980557;28;20179;-59
2022/10/19 00:55:39;;;;;;;2.80;1.87;;;;;;;;;;4979635;28;20650;-58
2022/10/19 00:58:08;;;;;;;5.83;2.67;;;;;;;;;;4969147;28;20184;-58
2022/10/19 01:00:43;;;;;;;4.07;2.20;;;;;;;;;;4975746;28;20649;-58
2022/10/19 01:03:11;;;;;;;5.53;2.80;;;;;;;;;;4966708;28;20183;-58
2022/10/19 01:05:45;;;;;;;4.10;2.40;;;;;;;;;;4979768;28;20239;-59
2022/10/19 01:08:11;;;;;;;3.50;2.60;;;;;;;;;;4975360;28;20219;-58
2022/10/19 01:11:00;;;;;;;3.33;2.20;;;;;;;;;;4968901;28;20192;-59
2022/10/19 01:13:49;;;;;;;3.80;2.93;;;;;;;;;;4928254;28;20224;-59
2022/10/19 01:16:19;;;;;;;3.30;2.50;;;;;;;;;;4984248;28;20669;-58
2022/10/19 01:18:54;;;;;;;2.53;2.30;;;;;;;;;;4975216;28;20167;-58
2022/10/19 01:21:21;;;;;;;3.87;2.60;;;;;;;;;;4963150;28;20192;-58
2022/10/19 01:24:06;;;;;;;2.47;2.20;;;;;;;;;;4980090;28;20318;-59
2022/10/19 01:26:41;;;;;;;3.63;2.30;;;;;;;;;;4967791;28;20194;-58
2022/10/19 01:29:16;;;;;;;7.13;2.60;;;;;;;;;;4969158;28;20736;-58
2022/10/19 01:31:51;;;;;;;3.33;2.50;;;;;;;;;;4968923;28;20203;-58
2022/10/19 01:34:17;;;;;;;5.33;2.50;;;;;;;;;;4976527;28;20184;-58
2022/10/19 01:37:06;;;;;;;3.20;2.17;;;;;;;;;;4977456;28;20270;-58
2022/10/19 01:39:32;;;;;;;5.47;2.90;;;;;;;;;;4979735;28;20180;-58
2022/10/19 01:42:07;;;;;;;3.27;2.97;;;;;;;;;;4951560;28;20278;-58
2022/10/19 01:44:39;;;;;;;3.83;2.50;;;;;;;;;;4977510;28;20189;-58
2022/10/19 01:47:09;;;;;;;2.67;2.17;;;;;;;;;;4979450;28;20190;-58
2022/10/19 01:49:43;;;;;;;3.57;2.60;;;;;;;;;;4979796;28;20176;-58
2022/10/19 01:52:11;;;;;;;6.17;2.50;;;;;;;;;;4975729;28;20218;-58
2022/10/19 01:54:41;;;;;;;3.97;2.53;;;;;;;;;;4979575;28;20608;-58
2022/10/19 01:57:17;;;;;;;2.80;2.60;;;;;;;;;;4978607;28;20184;-58
2022/10/19 01:59:44;;;;;;;5.50;2.40;;;;;;;;;;4983111;28;20182;-58
2022/10/19 02:02:11;;;;;;;2.97;2.40;;;;;;;;;;4973186;28;20187;-58
2022/10/19 02:04:37;;;;;;;4.00;2.30;;;;;;;;;;4957935;28;20187;-58
2022/10/19 02:07:04;;;;;;;3.10;2.20;;;;;;;;;;4961244;28;20827;-58
2022/10/19 02:09:31;;;;;;;2.43;2.23;;;;;;;;;;4971375;28;20194;-58
2022/10/19 02:12:02;;;;;;;2.90;2.43;;;;;;;;;;4991323;28;20187;-58
2022/10/19 02:14:51;;;;;;;3.70;2.67;;;;;;;;;;4985972;28;20235;-59
2022/10/19 02:17:20;;;;;;;3.43;2.50;;;;;;;;;;4985288;28;20242;-58
2022/10/19 02:19:46;;;;;;;4.17;2.80;;;;;;;;;;4985019;28;20194;-58
2022/10/19 02:22:13;;;;;;;4.37;2.73;;;;;;;;;;4973392;28;20184;-58
2022/10/19 02:24:39;;;;;;;3.03;2.40;;;;;;;;;;4984510;28;20485;-58
2022/10/19 02:27:13;;;;;;;2.40;2.20;;;;;;;;;;4961861;28;20604;-58
2022/10/19 02:29:42;;;;;;;5.27;2.53;;;;;;;;;;4983681;28;20166;-58
2022/10/19 02:32:10;;;;;;;2.37;2.07;;;;;;;;;;4974290;28;20295;-58
2022/10/19 02:34:37;;;;;;;2.60;2.00;;;;;;;;;;4973668;28;20553;-58
2022/10/19 02:37:03;;;;;;;2.40;2.20;;;;;;;;;;4947627;28;20169;-58
2022/10/19 02:39:29;;;;;;;2.23;2.03;;;;;;;;;;4987581;28;20171;-58
2022/10/19 02:42:21;;;;;;;2.67;2.03;;;;;;;;;;4979612;28;20241;-58
2022/10/19 02:44:50;;;;;;;3.50;2.77;;;;;;;;;;4968668;28;20198;-58
2022/10/19 02:47:37;;;;;;;3.07;2.37;;;;;;;;;;4978457;28;20263;-58
2022/10/19 02:50:09;;;;;;;3.70;2.87;;;;;;;;;;4979227;28;20602;-59
2022/10/19 02:52:43;;;;;;;5.77;2.70;;;;;;;;;;4969119;28;20249;-59
2022/10/19 02:55:09;;;;;;;6.63;2.70;;;;;;;;;;4971282;28;20187;-59
2022/10/19 02:57:35;;;;;;;2.77;2.50;;;;;;;;;;4971416;28;20195;-59
2022/10/19 03:00:03;;;;;;;3.20;2.10;;;;;;;;;;4943173;29;20176;-59
2022/10/19 03:02:29;;;;;;;4.47;2.30;;;;;;;;;;4964138;28;20262;-58
2022/10/19 03:04:55;;;;;;;2.60;2.40;;;;;;;;;;4963900;28;20184;-58
2022/10/19 03:07:25;;;;;;;7.73;2.40;;;;;;;;;;4972512;28;20184;-58
2022/10/19 03:09:53;;;;;;;4.30;2.93;;;;;;;;;;4971895;28;20176;-58
2022/10/19 03:12:25;;;;;;;4.30;2.80;;;;;;;;;;4969245;28;20207;-58
2022/10/19 03:14:52;;;;;;;4.10;2.90;;;;;;;;;;4970954;28;20223;-58
2022/10/19 03:17:18;;;;;;;4.30;2.73;;;;;;;;;;4973757;28;20180;-59
2022/10/19 03:19:44;;;;;;;3.73;2.70;;;;;;;;;;4981760;28;20656;-59
2022/10/19 03:22:10;;;;;;;3.43;2.80;;;;;;;;;;4965919;28;20196;-59
2022/10/19 03:24:39;;;;;;;3.57;2.57;;;;;;;;;;4974328;28;20199;-59
2022/10/19 03:27:06;;;;;;;3.57;2.87;;;;;;;;;;4953856;28;20709;-59
2022/10/19 03:29:32;;;;;;;3.07;2.40;;;;;;;;;;4952371;28;20188;-59
2022/10/19 03:31:58;;;;;;;3.93;3.60;;;;;;;;;;4970972;28;20246;-59
2022/10/19 03:34:27;;;;;;;5.10;2.50;;;;;;;;;;4968645;28;20540;-59
2022/10/19 03:36:53;;;;;;;7.40;3.17;;;;;;;;;;4954601;28;20176;-59
2022/10/19 03:39:22;;;;;;;4.03;2.60;;;;;;;;;;4970253;28;20215;-59
2022/10/19 03:41:48;;;;;;;6.07;3.17;;;;;;;;;;4970576;28;20197;-59
2022/10/19 03:44:14;;;;;;;4.10;2.67;;;;;;;;;;4970794;28;20187;-59
2022/10/19 03:46:41;;;;;;;5.20;3.13;;;;;;;;;;4969417;28;20180;-59
2022/10/19 03:49:08;;;;;;;5.43;2.83;;;;;;;;;;4973720;28;20190;-59
2022/10/19 03:51:34;;;;;;;4.50;3.00;;;;;;;;;;4971250;28;20713;-59
2022/10/19 03:54:07;;;;;;;3.80;3.40;;;;;;;;;;4984736;28;20194;-59
2022/10/19 03:56:35;;;;;;;3.67;2.87;;;;;;;;;;4970356;28;20179;-59
2022/10/19 03:59:02;;;;;;;5.93;2.43;;;;;;;;;;4971076;28;20188;-59
2022/10/19 04:01:30;;;;;;;3.40;2.80;;;;;;;;;;4952521;28;20180;-59
2022/10/19 04:03:57;;;;;;;5.93;3.07;;;;;;;;;;4970499;28;20242;-59
2022/10/19 04:06:30;;;;;;;6.03;3.00;;;;;;;;;;4970311;28;20207;-59
2022/10/19 04:09:03;;;;;;;3.60;2.90;;;;;;;;;;4971439;28;20219;-59
2022/10/19 04:11:30;;;;;;;3.30;2.60;;;;;;;;;;4963334;28;20752;-59
2022/10/19 04:13:57;;;;;;;3.97;2.37;;;;;;;;;;4970119;28;20574;-59
2022/10/19 04:16:24;;;;;;;4.43;2.60;;;;;;;;;;4959669;28;20196;-59
2022/10/19 04:18:51;;;;;;;5.20;3.20;;;;;;;;;;4969244;28;20190;-59
2022/10/19 04:21:22;;;;;;;5.60;4.43;;;;;;;;;;4975563;28;20187;-59
2022/10/19 04:23:48;;;;;;;4.53;3.00;;;;;;;;;;4974681;28;20528;-59
2022/10/19 04:26:14;;;;;;;5.23;3.83;;;;;;;;;;4985356;28;20187;-59
2022/10/19 04:28:40;;;;;;;4.03;2.83;;;;;;;;;;4986301;28;20191;-59
2022/10/19 04:31:07;;;;;;;3.50;3.20;;;;;;;;;;4951920;28;20286;-58
2022/10/19 04:33:33;;;;;;;3.53;2.70;;;;;;;;;;4953181;28;20725;-59
2022/10/19 04:36:13;;;;;;;6.60;2.97;;;;;;;;;;4972302;28;20219;-59
2022/10/19 04:38:39;;;;;;;4.47;3.00;;;;;;;;;;4966583;28;20278;-59
2022/10/19 04:41:09;;;;;;;6.03;3.23;;;;;;;;;;4948481;28;20191;-59
2022/10/19 04:43:44;;;;;;;3.63;3.23;;;;;;;;;;4981108;28;20694;-59
2022/10/19 04:46:14;;;;;;;5.27;4.60;;;;;;;;;;4949071;28;20688;-59
2022/10/19 04:48:46;;;;;;;6.20;3.83;;;;;;;;;;4977485;28;20183;-59
2022/10/19 04:51:15;;;;;;;4.20;3.23;;;;;;;;;;4951763;28;20693;-59
2022/10/19 04:53:52;;;;;;;4.40;2.90;;;;;;;;;;4969306;28;20226;-59
2022/10/19 04:56:22;;;;;;;3.63;3.03;;;;;;;;;;4966262;28;20218;-59
2022/10/19 04:58:49;;;;;;;4.33;3.43;;;;;;;;;;4964614;28;20554;-59
2022/10/19 05:01:21;;;;;;;4.50;2.80;;;;;;;;;;4970058;28;20266;-59
2022/10/19 05:03:48;;;;;;;4.67;3.10;;;;;;;;;;4954934;28;20697;-59
2022/10/19 05:06:15;;;;;;;3.10;2.80;;;;;;;;;;4975448;28;20250;-59
2022/10/19 05:08:41;;;;;;;3.00;2.80;;;;;;;;;;4972541;28;20207;-60
2022/10/19 05:11:09;;;;;;;5.90;4.60;;;;;;;;;;4982250;28;20318;-60
2022/10/19 05:13:35;;;;;;;5.70;4.60;;;;;;;;;;4969040;28;20231;-58
2022/10/19 05:16:02;;;;;;;4.63;4.20;;;;;;;;;;4984007;28;20191;-58
2022/10/19 05:18:34;;;;;;;5.03;4.53;;;;;;;;;;4969934;28;20506;-59
2022/10/19 05:21:04;;;;;;;9.20;4.60;;;;;;;;;;4956580;28;20364;-59
2022/10/19 05:23:30;;;;;;;5.53;4.33;;;;;;;;;;4967204;28;20587;-58
2022/10/19 05:26:07;;;;;;;6.97;4.20;;;;;;;;;;4971718;28;20725;-57
2022/10/19 05:28:34;;;;;;;8.27;5.60;;;;;;;;;;4955965;28;20221;-57
2022/10/19 05:31:06;;;;;;;6.20;4.33;;;;;;;;;;4969882;28;20180;-57
2022/10/19 05:33:32;;;;;;;6.20;4.87;;;;;;;;;;4953501;28;20183;-57
2022/10/19 05:35:58;;;;;;;9.23;4.67;;;;;;;;;;4969753;28;20262;-57
2022/10/19 05:38:29;;;;;;;9.03;5.83;;;;;;;;;;4968292;28;20588;-57
2022/10/19 05:40:55;;;;;;;4.93;4.43;;;;;;;;;;4965350;28;20187;-57
2022/10/19 05:43:24;;;;;;;8.77;6.40;;;;;;;;;;4959736;28;20538;-57
2022/10/19 05:45:50;;;;;;;5.10;4.13;;;;;;;;;;4951170;29;20211;-58
2022/10/19 05:48:19;;;;;;;8.20;5.70;;;;;;;;;;4978571;28;20176;-57
2022/10/19 05:50:55;;;;;;;6.33;4.60;;;;;;;;;;4967791;28;20533;-57
2022/10/19 05:53:22;;;;;;;9.77;5.17;;;;;;;;;;4968873;28;20179;-57
2022/10/19 05:55:48;;;;;;;4.87;4.43;;;;;;;;;;4967894;28;20230;-57
2022/10/19 05:58:14;;;;;;;5.90;4.40;;;;;;;;;;4933910;28;20585;-57
2022/10/19 06:00:40;;;;;;;8.57;5.00;;;;;;;;;;4950502;28;20184;-57
2022/10/19 06:03:09;;;;;;;4.40;3.83;;;;;;;;;;4972792;28;20179;-57
2022/10/19 06:05:36;;;;;;;4.47;4.07;;;;;;;;;;4959583;28;20560;-58
2022/10/19 06:08:08;;;;;;;5.97;4.33;;;;;;;;;;4962422;28;20184;-58
2022/10/19 06:10:34;;;;;;;7.73;4.03;;;;;;;;;;4969847;28;20183;-58
2022/10/19 06:13:00;;;;;;;6.10;4.47;;;;;;;;;;4968808;28;20214;-58
2022/10/19 06:15:29;;;;;;;7.10;3.77;;;;;;;;;;4969639;28;20195;-58
2022/10/19 06:17:55;;;;;;;7.63;4.33;;;;;;;;;;4940184;28;20241;-58
2022/10/19 06:20:25;;;;;;;8.00;3.93;;;;;;;;;;4937872;28;20183;-58
2022/10/19 06:22:52;;;;;;;5.07;3.90;;;;;;;;;;4950029;29;20658;-58
2022/10/19 06:25:18;;;;;;;7.33;4.67;;;;;;;;;;4958315;28;20207;-58
2022/10/19 06:27:44;;;;;;;5.83;3.80;;;;;;;;;;4950704;29;20231;-59
2022/10/19 06:30:10;;;;;;;4.87;3.77;;;;;;;;;;4948831;29;20185;-58
2022/10/19 06:32:36;;;;;;;3.87;3.40;;;;;;;;;;4944306;29;20189;-58
2022/10/19 06:35:02;;;;;;;9.87;4.00;;;;;;;;;;4949230;29;20271;-58
2022/10/19 06:37:29;;;;;;;6.83;4.33;;;;;;;;;;4949787;29;20196;-58
2022/10/19 06:40:00;;;;;;;5.87;4.03;;;;;;;;;;4949986;29;20169;-58
2022/10/19 06:42:26;;;;;;;7.13;3.80;;;;;;;;;;4949387;29;20192;-58
2022/10/19 06:44:52;;;;;;;6.27;3.73;;;;;;;;;;4949326;28;20180;-58
2022/10/19 06:47:18;;;;;;;6.00;4.20;;;;;;;;;;4934454;29;20203;-58
2022/10/19 06:49:44;;;;;;;5.77;3.60;;;;;;;;;;4948956;29;20176;-58
2022/10/19 06:52:10;;;;;;;3.77;3.20;;;;;;;;;;4951505;28;20478;-58
2022/10/19 06:54:38;;;;;;;7.67;4.13;;;;;;;;;;4956830;28;20251;-58
2022/10/19 06:57:06;;;;;;;4.10;3.50;;;;;;;;;;4929977;29;20432;-58
2022/10/19 06:59:33;;;;;;;6.40;3.43;;;;;;;;;;4957159;28;20203;-58
2022/10/19 07:01:59;;;;;;;4.53;4.07;;;;;;;;;;4935933;29;20235;-58
2022/10/19 07:04:25;;;;;;;5.60;3.90;;;;;;;;;;4944843;28;20189;-58
2022/10/19 07:06:51;;;;;;;3.70;3.40;;;;;;;;;;4943427;29;20200;-58
2022/10/19 07:09:24;;;;;;;6.20;4.00;;;;;;;;;;4952188;28;20236;-57
2022/10/19 07:11:50;;;;;;;5.30;4.03;;;;;;;;;;4942828;29;20212;-59
2022/10/19 07:14:17;;;;;;;5.07;3.40;;;;;;;;;;4961095;28;20694;-59
2022/10/19 07:16:43;;;;;;;4.40;3.47;;;;;;;;;;4954577;28;20187;-59
2022/10/19 07:19:12;;;;;;;3.90;3.50;;;;;;;;;;4971418;28;20180;-58
2022/10/19 07:21:40;;;;;;;5.43;4.03;;;;;;;;;;4955456;28;20195;-58
2022/10/19 07:24:07;;;;;;;5.00;3.57;;;;;;;;;;4952700;28;20196;-58
2022/10/19 07:26:36;;;;;;;6.40;3.83;;;;;;;;;;4967930;28;20263;-58
2022/10/19 07:29:05;;;;;;;5.50;3.87;;;;;;;;;;4964125;28;20210;-58
2022/10/19 07:31:31;;;;;;;5.33;3.20;;;;;;;;;;4969100;28;20208;-58
2022/10/19 07:34:00;;;;;;;6.23;3.73;;;;;;;;;;4967853;28;20172;-58
2022/10/19 07:36:26;;;;;;;4.83;3.30;;;;;;;;;;4970396;28;20267;-58
2022/10/19 07:39:01;;;;;;;6.87;4.00;;;;;;;;;;4971455;28;20184;-58
2022/10/19 07:41:27;;;;;;;4.90;3.83;;;;;;;;;;4967188;28;20194;-58
2022/10/19 07:43:57;;;;;;;4.33;3.37;;;;;;;;;;4951474;29;20164;-58
2022/10/19 07:46:24;;;;;;;5.80;4.17;;;;;;;;;;4961109;28;20596;-58
2022/10/19 07:48:50;;;;;;;4.93;3.70;;;;;;;;;;4971805;28;20639;-58
2022/10/19 07:51:17;;;;;;;5.53;3.77;;;;;;;;;;4952166;28;20294;-58
2022/10/19 07:53:43;;;;;;;6.30;3.73;;;;;;;;;;4951043;28;20535;-59
2022/10/19 07:56:14;;;;;;;4.60;3.60;;;;;;;;;;4957957;28;20187;-58
2022/10/19 07:58:43;;;;;;;4.47;3.70;;;;;;;;;;4969352;28;20195;-58
2022/10/19 08:01:20;;;;;;;4.90;3.77;;;;;;;;;;4971574;28;20178;-58
2022/10/19 08:03:51;;;;;;;5.03;3.13;;;;;;;;;;4971469;28;20167;-58
2022/10/19 08:06:18;;;;;;;4.73;3.30;;;;;;;;;;4969791;28;20216;-58
2022/10/19 08:08:45;;;;;;;3.60;3.30;;;;;;;;;;4971134;28;20642;-58
2022/10/19 08:11:18;;;;;;;6.00;3.57;;;;;;;;;;4961529;28;20184;-58
2022/10/19 08:13:45;;;;;;;6.03;3.13;;;;;;;;;;4970699;28;20227;-58
2022/10/19 08:16:36;;;;;;;5.63;3.23;;;;;;;;;;4970704;28;20168;-58
2022/10/19 08:19:05;;;;;;;6.33;3.50;;;;;;;;;;4971034;28;20176;-58
2022/10/19 08:21:32;;;;;;;5.77;3.67;;;;;;;;;;4961931;28;20566;-58
2022/10/19 08:24:01;;;;;;;4.00;3.03;;;;;;;;;;4968003;28;20677;-58
2022/10/19 08:26:30;;;;;;;4.33;3.43;;;;;;;;;;4961540;28;20175;-58
2022/10/19 08:29:04;;;;;;;5.23;4.07;;;;;;;;;;4968430;28;20192;-58
2022/10/19 08:31:30;;;;;;;3.93;3.47;;;;;;;;;;4969550;28;20293;-58
2022/10/19 08:33:56;;;;;;;5.10;3.50;;;;;;;;;;4971022;28;20683;-58
2022/10/19 08:36:23;;;;;;;6.67;3.83;;;;;;;;;;4970727;28;20172;-58
2022/10/19 08:38:50;;;;;;;4.63;3.27;;;;;;;;;;4956572;28;20177;-58
2022/10/19 08:41:22;;;;;;;5.20;3.73;;;;;;;;;;4961272;28;20188;-57
2022/10/19 08:44:09;;;;;;;4.83;3.87;;;;;;;;;;4966569;28;20534;-57
2022/10/19 08:46:59;;;;;;;7.73;3.30;;;;;;;;;;4930083;28;20235;-58
2022/10/19 08:49:27;;;;;;;6.93;3.30;;;;;;;;;;4969057;28;20380;-57
2022/10/19 08:52:33;;;;;;;4.07;3.20;;;;;;;;;;4953407;28;20203;-57
2022/10/19 08:55:04;;;;;;;6.27;3.33;;;;;;;;;;4925521;29;20663;-57
2022/10/19 08:57:43;;;;;;;3.40;3.10;;;;;;;;;;4908876;29;20261;-58
2022/10/19 09:00:17;;;;;;;3.30;2.83;;;;;;;;;;4963973;28;20282;-58
2022/10/19 09:02:49;;;;;;;4.50;3.43;;;;;;;;;;4968849;28;20186;-58
2022/10/19 09:05:20;;;;;;;4.00;3.63;;;;;;;;;;4951755;28;20207;-58
2022/10/19 09:07:51;;;;;;;6.97;3.00;;;;;;;;;;4969578;28;20283;-58
2022/10/19 09:10:23;;;;;;;4.07;2.77;;;;;;;;;;4944118;28;20283;-58
2022/10/19 09:12:50;;;;;;;5.27;2.77;;;;;;;;;;4968618;28;20210;-58
2022/10/19 09:15:19;;;;;;;4.37;3.00;;;;;;;;;;4967095;28;21055;-58
2022/10/19 09:17:45;;;;;;;4.97;3.20;;;;;;;;;;4968149;28;20172;-59
2022/10/19 09:20:14;;;;;;;3.33;2.53;;;;;;;;;;4949959;28;20598;-57
2022/10/19 09:22:44;;;;;;;7.23;3.00;;;;;;;;;;4967538;28;20527;-57
2022/10/19 09:25:11;;;;;;;2.77;2.50;;;;;;;;;;4949550;28;20192;-58
2022/10/19 09:27:43;;;;;;;7.40;3.40;;;;;;;;;;4966479;28;20606;-57
2022/10/19 09:30:15;;;;;;;3.83;2.60;;;;;;;;;;4964599;28;20549;-57
2022/10/19 09:32:42;;;;;;;4.30;2.37;;;;;;;;;;4947002;28;20215;-57
2022/10/19 09:35:35;;;;;;;5.10;2.80;;;;;;;;;;4968130;28;20267;-57
2022/10/19 09:38:02;;;;;;;4.47;2.37;;;;;;;;;;4959589;28;20714;-57
2022/10/19 09:40:30;;;;;;;7.93;2.77;;;;;;;;;;4969808;28;20183;-57
2022/10/19 09:43:01;;;;;;;3.97;2.50;;;;;;;;;;4965222;28;20244;-57
2022/10/19 09:45:40;;;;;;;3.73;2.20;;;;;;;;;;4948028;28;20789;-57
2022/10/19 09:48:15;;;;;;;5.03;2.90;;;;;;;;;;4965069;28;20190;-57
2022/10/19 09:50:43;;;;;;;2.93;2.40;;;;;;;;;;4964242;28;20274;-57
2022/10/19 09:53:17;;;;;;;4.50;2.53;;;;;;;;;;4966932;28;20212;-57
2022/10/19 09:55:45;;;;;;;3.63;2.57;;;;;;;;;;4969162;28;20250;-58
2022/10/19 09:58:15;;;;;;;8.03;2.83;;;;;;;;;;4948189;28;20446;-57
2022/10/19 10:00:45;;;;;;;4.97;2.30;;;;;;;;;;4951233;28;20179;-57
2022/10/19 10:03:24;;;;;;;5.03;3.10;;;;;;;;;;4968523;28;20191;-57
2022/10/19 10:05:50;;;;;;;4.77;2.57;;;;;;;;;;4944547;28;20675;-57
2022/10/19 10:08:18;;;;;;;4.60;2.87;;;;;;;;;;4967493;28;20190;-57
2022/10/19 10:10:46;;;;;;;4.80;2.57;;;;;;;;;;4959290;28;20315;-57
2022/10/19 10:13:17;;;;;;;2.50;2.17;;;;;;;;;;4945499;28;20782;-61
2022/10/19 10:15:44;;;;;;;2.87;2.00;;;;;;;;;;4962498;28;20705;-58
2022/10/19 10:18:13;;;;;;;5.00;2.47;;;;;;;;;;4967851;28;20572;-59
2022/10/19 10:20:58;;;;;;;6.07;2.63;;;;;;;;;;4970812;28;20179;-57
2022/10/19 10:23:25;;;;;;;4.03;2.47;;;;;;;;;;4955944;28;20682;-58
2022/10/19 10:25:54;;;;;;;6.57;2.00;;;;;;;;;;4989058;28;20172;-57
2022/10/19 10:28:22;;;;;;;3.57;1.73;;;;;;;;;;4980048;28;20599;-57
2022/10/19 10:30:53;;;;;;;5.90;3.10;;;;;;;;;;4960247;28;20184;-56
2022/10/19 10:33:25;;;;;;;3.70;2.40;;;;;;;;;;4973006;28;20674;-57
2022/10/19 10:35:54;;;;;;;6.03;2.43;;;;;;;;;;4971801;28;20190;-56
2022/10/19 10:38:28;;;;;;;3.97;2.20;;;;;;;;;;4967330;28;20661;-56
2022/10/19 10:40:57;;;;;;;3.80;2.33;;;;;;;;;;4953166;28;20190;-58
2022/10/19 10:43:35;;;;;;;3.03;2.20;;;;;;;;;;4952921;28;20278;-56
2022/10/19 10:46:21;;;;;;;3.70;2.07;;;;;;;;;;4971772;28;20171;-57
2022/10/19 10:48:58;;;;;;;6.13;2.10;;;;;;;;;;4972139;28;20279;-56
2022/10/19 10:51:24;;;;;;;7.90;2.17;;;;;;;;;;4971511;28;20203;-57
2022/10/19 10:53:51;;;;;;;3.77;2.60;;;;;;;;;;4971585;28;20175;-57
2022/10/19 10:56:23;;;;;;;4.20;2.30;;;;;;;;;;4971410;28;20207;-57
2022/10/19 10:58:53;;;;;;;3.73;1.87;;;;;;;;;;4963183;28;20187;-57
2022/10/19 11:01:22;;;;;;;5.43;2.33;;;;;;;;;;4967867;28;20215;-56
2022/10/19 11:04:04;;;;;;;8.17;2.90;;;;;;;;;;4971241;28;20195;-56
2022/10/19 11:06:33;;;;;;;3.23;2.07;;;;;;;;;;4970752;28;20689;-56
2022/10/19 11:09:18;;;;;;;3.17;2.27;;;;;;;;;;4972205;28;20171;-56
2022/10/19 11:11:47;;;;;;;3.17;1.80;;;;;;;;;;4954090;28;20563;-56
2022/10/19 11:14:22;;;;;;;4.07;2.07;;;;;;;;;;4954227;28;20233;-56
2022/10/19 11:16:49;;;;;;;4.20;2.13;;;;;;;;;;4971167;28;20732;-56
2022/10/19 11:19:22;;;;;;;1.77;1.60;;;;;;;;;;4968411;28;20327;-57
2022/10/19 11:21:54;;;;;;;5.70;2.60;;;;;;;;;;4979109;28;20650;-57
2022/10/19 11:24:25;;;;;;;2.80;2.03;;;;;;;;;;4971870;28;20164;-57
2022/10/19 11:26:58;;;;;;;3.20;2.10;;;;;;;;;;4953943;28;20556;-57
2022/10/19 11:29:34;;;;;;;3.83;2.07;;;;;;;;;;4962881;28;20193;-57
2022/10/19 11:32:00;;;;;;;4.23;2.67;;;;;;;;;;4968907;28;20588;-57
2022/10/19 11:34:29;;;;;;;3.93;2.00;;;;;;;;;;4988219;28;20180;-56
2022/10/19 11:37:02;;;;;;;3.50;1.90;;;;;;;;;;4959103;28;20218;-57
2022/10/19 11:39:40;;;;;;;3.73;2.17;;;;;;;;;;4971811;28;20179;-57
2022/10/19 11:42:06;;;;;;;2.40;2.10;;;;;;;;;;4971449;28;20657;-57
2022/10/19 11:44:46;;;;;;;2.23;2.00;;;;;;;;;;4969762;28;20653;-57
2022/10/19 11:47:19;;;;;;;2.20;2.00;;;;;;;;;;4971483;28;20246;-57
2022/10/19 11:49:56;;;;;;;3.50;1.93;;;;;;;;;;4971218;28;20243;-57
2022/10/19 11:52:31;;;;;;;2.77;1.70;;;;;;;;;;4966761;28;20230;-57
2022/10/19 11:55:16;;;;;;;3.97;2.00;;;;;;;;;;4973317;28;20180;-57
2022/10/19 11:58:06;;;;;;;2.83;1.80;;;;;;;;;;4969814;28;20184;-57
2022/10/19 12:00:59;;;;;;;2.67;2.43;;;;;;;;;;4971548;28;20568;-57
2022/10/19 12:03:28;;;;;;;2.97;2.23;;;;;;;;;;4915772;28;20195;-57
2022/10/19 12:06:01;;;;;;;3.87;1.90;;;;;;;;;;4966241;28;20254;-57
2022/10/19 12:08:46;;;;;;;2.43;1.73;;;;;;;;;;4968588;28;20176;-58
2022/10/19 12:11:32;;;;;;;2.43;2.00;;;;;;;;;;4969763;28;20179;-57
2022/10/19 12:14:05;;;;;;;2.00;1.80;;;;;;;;;;4963483;28;20274;-57
2022/10/19 12:16:40;;;;;;;2.70;1.50;;;;;;;;;;4966465;28;20538;-58
2022/10/19 12:19:19;;;;;;;2.10;1.93;;;;;;;;;;4950577;28;20269;-57
2022/10/19 12:21:46;;;;;;;2.30;2.10;;;;;;;;;;4970839;28;20172;-57
2022/10/19 12:24:22;;;;;;;3.47;1.90;;;;;;;;;;4969588;28;20271;-57
2022/10/19 12:26:49;;;;;;;2.33;2.13;;;;;;;;;;4960149;28;20793;-57
2022/10/19 12:29:19;;;;;;;2.83;1.77;;;;;;;;;;4975790;28;20198;-57
2022/10/19 12:31:47;;;;;;;2.83;2.03;;;;;;;;;;4968513;28;20286;-57
2022/10/19 12:34:13;;;;;;;4.97;2.60;;;;;;;;;;4952762;28;20179;-57
2022/10/19 12:36:42;;;;;;;3.50;1.90;;;;;;;;;;4953056;28;20506;-57
2022/10/19 12:39:12;;;;;;;4.50;2.20;;;;;;;;;;4952482;28;20188;-57
2022/10/19 12:42:09;;;;;;;2.90;2.00;;;;;;;;;;4952778;28;20589;-57
2022/10/19 12:44:54;;;;;;;2.50;1.87;;;;;;;;;;4969003;28;20246;-57
2022/10/19 12:47:21;;;;;;;2.13;1.60;;;;;;;;;;4969370;28;20602;-57
2022/10/19 12:49:49;;;;;;;2.37;1.90;;;;;;;;;;4970922;28;20168;-57
2022/10/19 12:52:35;;;;;;;2.67;2.17;;;;;;;;;;4970880;28;20231;-57
2022/10/19 12:55:23;;;;;;;2.83;2.00;;;;;;;;;;4959903;28;20203;-57
2022/10/19 12:57:56;;;;;;;3.13;2.07;;;;;;;;;;4968307;28;20730;-57
2022/10/19 13:00:32;;;;;;;2.80;2.07;;;;;;;;;;4969471;28;20198;-58
2022/10/19 13:03:04;;;;;;;2.07;1.97;;;;;;;;;;4948164;28;20191;-57
2022/10/19 13:05:32;;;;;;;2.57;2.13;;;;;;;;;;4951513;28;20212;-57
2022/10/19 13:08:03;;;;;;;4.77;1.70;;;;;;;;;;4969562;28;20656;-57
2022/10/19 13:10:31;;;;;;;4.67;2.30;;;;;;;;;;4951833;28;20214;-57
2022/10/19 13:12:57;;;;;;;2.23;2.03;;;;;;;;;;4969863;28;20199;-57
2022/10/19 13:15:55;;;;;;;4.37;2.67;;;;;;;;;;4944716;28;20315;-57
2022/10/19 13:18:40;;;;;;;2.90;1.80;;;;;;;;;;4941586;28;20184;-57
2022/10/19 13:21:06;;;;;;;2.77;2.03;;;;;;;;;;4933898;28;20196;-57
2022/10/19 13:23:32;;;;;;;3.10;2.03;;;;;;;;;;4945726;28;20296;-57
2022/10/19 13:26:17;;;;;;;4.80;2.30;;;;;;;;;;4949345;28;20263;-57
2022/10/19 13:28:56;;;;;;;3.90;2.60;;;;;;;;;;4930336;29;20523;-57
2022/10/19 13:31:26;;;;;;;2.27;1.97;;;;;;;;;;4947689;28;20827;-57
2022/10/19 13:33:53;;;;;;;2.23;1.70;;;;;;;;;;4946938;28;20203;-58
2022/10/19 13:36:23;;;;;;;3.33;2.70;;;;;;;;;;4931199;28;20188;-57
2022/10/19 13:38:55;;;;;;;3.00;2.00;;;;;;;;;;4930456;29;20176;-57
2022/10/19 13:41:26;;;;;;;6.53;2.60;;;;;;;;;;4930237;29;20192;-57
2022/10/19 13:43:52;;;;;;;3.07;2.10;;;;;;;;;;4930006;29;20400;-57
2022/10/19 13:46:21;;;;;;;3.97;1.90;;;;;;;;;;4944808;28;20192;-58
2022/10/19 13:49:06;;;;;;;7.17;2.23;;;;;;;;;;4938472;28;20240;-56
2022/10/19 13:51:44;;;;;;;4.53;2.23;;;;;;;;;;4944183;28;20214;-57
2022/10/19 13:54:16;;;;;;;4.67;2.30;;;;;;;;;;4940035;28;20188;-56
2022/10/19 13:57:02;;;;;;;3.00;2.70;;;;;;;;;;4937154;29;20231;-56
2022/10/19 13:59:37;;;;;;;5.07;3.00;;;;;;;;;;4937657;28;20184;-56
2022/10/19 14:02:16;;;;;;;4.80;2.23;;;;;;;;;;4928007;28;20219;-57
2022/10/19 14:04:56;;;;;;;6.67;2.03;;;;;;;;;;4947126;28;20196;-57
2022/10/19 14:07:25;;;;;;;4.57;2.43;;;;;;;;;;4955299;28;21055;-56
2022/10/19 14:10:12;;;;;;;3.77;2.80;;;;;;;;;;4956905;28;20665;-57
2022/10/19 14:12:40;;;;;;;3.97;2.13;;;;;;;;;;4941625;28;20205;-57
2022/10/19 14:15:18;;;;;;;5.17;2.67;;;;;;;;;;4947624;28;20247;-57
2022/10/19 14:17:44;;;;;;;2.60;2.20;;;;;;;;;;4949413;28;20674;-57
2022/10/19 14:20:29;;;;;;;4.17;3.63;;;;;;;;;;4970543;28;20180;-56
2022/10/19 14:22:56;;;;;;;3.80;2.20;;;;;;;;;;4973734;28;20187;-57
2022/10/19 14:25:28;;;;;;;4.53;3.13;;;;;;;;;;4950052;28;20279;-56
2022/10/19 14:28:04;;;;;;;5.23;2.57;;;;;;;;;;4972454;28;20422;-57
2022/10/19 14:30:35;;;;;;;3.07;2.20;;;;;;;;;;4949020;28;20196;-57
2022/10/19 14:33:06;;;;;;;4.73;2.77;;;;;;;;;;4964518;28;20207;-58
2022/10/19 14:35:37;;;;;;;4.27;2.37;;;;;;;;;;4966044;28;20187;-58
2022/10/19 14:38:10;;;;;;;5.00;2.00;;;;;;;;;;4956039;28;20657;-58
2022/10/19 14:40:40;;;;;;;4.37;1.90;;;;;;;;;;4964178;28;20615;-58
2022/10/19 14:43:20;;;;;;;2.93;2.50;;;;;;;;;;4968449;28;20588;-57
2022/10/19 14:46:02;;;;;;;2.90;2.40;;;;;;;;;;4969632;28;20197;-57
2022/10/19 14:48:29;;;;;;;2.47;2.13;;;;;;;;;;4966260;28;20199;-58
2022/10/19 14:50:59;;;;;;;6.20;2.23;;;;;;;;;;4950632;28;20648;-58
2022/10/19 14:53:36;;;;;;;4.90;2.23;;;;;;;;;;4967386;28;20200;-58
2022/10/19 14:56:18;;;;;;;2.57;2.07;;;;;;;;;;4960718;28;20682;-57
2022/10/19 14:58:48;;;;;;;4.10;2.60;;;;;;;;;;4965686;28;20625;-58
2022/10/19 15:01:16;;;;;;;2.60;2.37;;;;;;;;;;4974172;28;20192;-58
2022/10/19 15:03:43;;;;;;;2.43;2.00;;;;;;;;;;4969978;28;20184;-58
2022/10/19 15:06:16;;;;;;;2.03;1.83;;;;;;;;;;4968032;28;20211;-57